Hundvaag 1 weather for Dec 2009
Month no. 270
Obs.
Da.
Temp. Dew Point Precip. Wind
Speed
Wind gusts Cloud cover Press. Humidity Wind dir. Sunny OPT
01.12.2009 1,2 -1,2 0,0 2,6 2,6 10 1012,4 84,0 67,5 1 80,0 %
02.12.2009 4,3 -0,9 0,0 24,1 24,1 2 1013,8 69,0 112,5   47,5 %
03.12.2009 4,6 -1,6 0,0 22,2 23,0 1 1008,7 64,0 90,0   45,0 %
04.12.2009 6,8 0,0 0,0 7,4 7,4 1 1008,4 62,0 67,5 1 57,5 %
05.12.2009 7,3 0,5 0,0 11,1 11,1 1 1008,7 62,0 67,5 1 55,0 %
06.12.2009 7,5 2,8 0,0 20,9 20,9 2 1002,3 72,0 90,0   55,0 %
07.12.2009 7,2 4,7 5,1 9,3 9,3 1 1001,6 84,0 90,0 1 55,0 %
08.12.2009 7,6 3,1 0,0 11,1 11,1 9 1010,0 73,0 45,0 1 77,5 %
09.12.2009 7,7 2,2 0,0 13,0 13,0 2 1017,5 68,0 45,0 1 60,0 %
10.12.2009 7,3 3,9 0,0 0,0 0,0 1 1021,6 79,0 67,5   62,5 %
11.12.2009 7,1 5,1 0,0 0,0 0,0 0 1033,4 87,0 315,0   60,0 %
12.12.2009 3,1 1,3 0,0 5,6 6,4 10 1040,9 88,0 337,5 1 80,0 %
13.12.2009 3,6 0,8 0,0 4,0 4,0 0 1035,1 82,0 90,0   55,0 %
14.12.2009 4,3 1,5 10,2 13,0 13,0 0 1024,3 82,0 157,5   42,5 %
15.12.2009 3,9 2,3 7,6 1,9 2,1 3 1020,5 89,0 0,0 1 60,0 %
16.12.2009 2,9 0,1 0,0 0,0 0,0 1 1015,1 82,0 112,5   60,0 %
17.12.2009 -1,8 -10,1 2,5 19,0 19,0 10 1027,7 53,0 45,0 1 65,0 %
18.12.2009 -3,9 -10,9 0,0 5,6 5,6 10 1028,7 58,0 22,5 1 72,5 %
19.12.2009 -0,7 -4,9 0,0 18,5 18,5 0 1011,4 73,0 112,5   40,0 %
20.12.2009 -0,5 -3,2 0,0 0,0 0,0 3 996,2 82,0 270,0 1 60,0 %
21.12.2009 -2,1 -9,1 0,0 13,0 13,0 1 998,2 59,0 90,0 1 47,5 %
22.12.2009 1,2 -3,1 0,0 16,7 16,7 2 991,4 73,0 90,0   50,0 %
23.12.2009 1,3 -3,9 0,0 9,3 9,3 2 988,4 68,0 90,0   55,0 %
24.12.2009 2,8 0,7 5,1 0,0 0,0 4 995,1 86,0 180,0 1 65,0 %
25.12.2009 3,3 -2,7 0,0 7,4 7,4 0 998,9 65,0 22,5   52,5 %
26.12.2009 1,5 -0,9 0,0 0,0 1,4 4 996,5 84,0 90,0 1 65,0 %
27.12.2009 2,5 0,4 5,1 7,4 7,4 2 994,1 86,0 157,5   55,0 %
28.12.2009 1,4 -0,7 0,0 5,6 6,1 0 999,2 86,0 270,0 1 52,5 %
29.12.2009 1,8 -0,1 0,0 1,9 1,9 2 1004,6 87,0 202,5 1 60,0 %
30.12.2009 -2,6 -6,4 0,0 0,0 0,0 10 1011,1 75,0 270,0 1 75,0 %
31.12.2009 -3,8 -7,9 0,0 4,0 4,0 10 1011,7 73,0 270,0 1 72,5 %
Avrg/Sum 2,8 -1,2 35,6 8,2 8,3 3,4 1010,6 75,3 127,0 18 59,4 %